sensor_id;sensor_type;location;lat;lon;timestamp;P1;durP1;ratioP1;P2;durP2;ratioP2
50605;SDS011;36557;53.572;10.170;2024-03-02T00:00:04;23.85;;;12.60;;
50605;SDS011;36557;53.572;10.170;2024-03-02T00:02:39;27.85;;;14.30;;
50605;SDS011;36557;53.572;10.170;2024-03-02T00:05:06;27.63;;;13.80;;
50605;SDS011;36557;53.572;10.170;2024-03-02T00:07:32;25.25;;;13.57;;
50605;SDS011;36557;53.572;10.170;2024-03-02T00:09:58;31.08;;;14.05;;
50605;SDS011;36557;53.572;10.170;2024-03-02T00:12:24;26.20;;;14.20;;
50605;SDS011;36557;53.572;10.170;2024-03-02T00:14:51;26.02;;;13.60;;
50605;SDS011;36557;53.572;10.170;2024-03-02T00:17:24;29.92;;;14.63;;
50605;SDS011;36557;53.572;10.170;2024-03-02T00:19:53;28.42;;;14.45;;
50605;SDS011;36557;53.572;10.170;2024-03-02T00:22:19;29.23;;;14.85;;
50605;SDS011;36557;53.572;10.170;2024-03-02T00:24:44;27.65;;;14.43;;
50605;SDS011;36557;53.572;10.170;2024-03-02T00:27:10;30.13;;;15.07;;
50605;SDS011;36557;53.572;10.170;2024-03-02T00:29:40;28.58;;;14.90;;
50605;SDS011;36557;53.572;10.170;2024-03-02T00:32:12;26.35;;;13.82;;
50605;SDS011;36557;53.572;10.170;2024-03-02T00:34:39;28.60;;;14.88;;
50605;SDS011;36557;53.572;10.170;2024-03-02T00:37:05;31.17;;;15.55;;
50605;SDS011;36557;53.572;10.170;2024-03-02T00:39:31;27.05;;;14.65;;
50605;SDS011;36557;53.572;10.170;2024-03-02T00:41:57;30.65;;;15.18;;
50605;SDS011;36557;53.572;10.170;2024-03-02T00:44:23;28.58;;;15.50;;
50605;SDS011;36557;53.572;10.170;2024-03-02T00:46:59;30.65;;;15.80;;
50605;SDS011;36557;53.572;10.170;2024-03-02T00:49:25;30.63;;;15.50;;
50605;SDS011;36557;53.572;10.170;2024-03-02T00:51:53;31.08;;;15.40;;
50605;SDS011;36557;53.572;10.170;2024-03-02T00:54:24;28.90;;;14.73;;
50605;SDS011;36557;53.572;10.170;2024-03-02T00:56:51;28.70;;;14.88;;
50605;SDS011;36557;53.572;10.170;2024-03-02T00:59:20;30.55;;;15.40;;
50605;SDS011;36557;53.572;10.170;2024-03-02T01:01:47;31.50;;;15.80;;
50605;SDS011;36557;53.572;10.170;2024-03-02T01:04:14;30.73;;;15.65;;
50605;SDS011;36557;53.572;10.170;2024-03-02T01:06:39;30.17;;;16.50;;
50605;SDS011;36557;53.572;10.170;2024-03-02T01:09:05;31.53;;;16.07;;
50605;SDS011;36557;53.572;10.170;2024-03-02T01:11:31;29.63;;;16.03;;
50605;SDS011;36557;53.572;10.170;2024-03-02T01:13:57;32.92;;;16.88;;
50605;SDS011;36557;53.572;10.170;2024-03-02T01:16:22;32.23;;;16.30;;
50605;SDS011;36557;53.572;10.170;2024-03-02T01:18:48;30.70;;;15.83;;
50605;SDS011;36557;53.572;10.170;2024-03-02T01:21:14;34.22;;;16.40;;
50605;SDS011;36557;53.572;10.170;2024-03-02T01:23:40;30.15;;;14.98;;
50605;SDS011;36557;53.572;10.170;2024-03-02T01:26:05;32.00;;;15.73;;
50605;SDS011;36557;53.572;10.170;2024-03-02T01:28:32;34.10;;;17.13;;
50605;SDS011;36557;53.572;10.170;2024-03-02T01:30:58;30.42;;;15.45;;
50605;SDS011;36557;53.572;10.170;2024-03-02T01:33:23;30.23;;;15.93;;
50605;SDS011;36557;53.572;10.170;2024-03-02T01:35:49;30.10;;;15.33;;
50605;SDS011;36557;53.572;10.170;2024-03-02T01:38:15;30.58;;;16.08;;
50605;SDS011;36557;53.572;10.170;2024-03-02T01:40:41;29.77;;;16.03;;
50605;SDS011;36557;53.572;10.170;2024-03-02T01:43:09;31.73;;;16.38;;
50605;SDS011;36557;53.572;10.170;2024-03-02T01:45:35;31.08;;;16.13;;
50605;SDS011;36557;53.572;10.170;2024-03-02T01:48:02;30.63;;;16.25;;
50605;SDS011;36557;53.572;10.170;2024-03-02T01:50:32;33.28;;;16.65;;
50605;SDS011;36557;53.572;10.170;2024-03-02T01:52:58;33.63;;;17.30;;
50605;SDS011;36557;53.572;10.170;2024-03-02T01:55:24;31.30;;;16.23;;
50605;SDS011;36557;53.572;10.170;2024-03-02T01:57:51;29.70;;;15.67;;
50605;SDS011;36557;53.572;10.170;2024-03-02T02:00:20;30.80;;;15.85;;
50605;SDS011;36557;53.572;10.170;2024-03-02T02:02:46;30.73;;;16.20;;
50605;SDS011;36557;53.572;10.170;2024-03-02T02:05:15;30.73;;;15.98;;
50605;SDS011;36557;53.572;10.170;2024-03-02T02:07:41;30.27;;;16.10;;
50605;SDS011;36557;53.572;10.170;2024-03-02T02:10:08;30.52;;;15.60;;
50605;SDS011;36557;53.572;10.170;2024-03-02T02:12:35;29.92;;;16.17;;
50605;SDS011;36557;53.572;10.170;2024-03-02T02:15:01;31.60;;;15.32;;
50605;SDS011;36557;53.572;10.170;2024-03-02T02:17:28;31.10;;;16.15;;
50605;SDS011;36557;53.572;10.170;2024-03-02T02:19:53;32.40;;;16.45;;
50605;SDS011;36557;53.572;10.170;2024-03-02T02:22:19;33.40;;;15.95;;
50605;SDS011;36557;53.572;10.170;2024-03-02T02:24:45;31.47;;;15.93;;
50605;SDS011;36557;53.572;10.170;2024-03-02T02:27:10;31.53;;;16.33;;
50605;SDS011;36557;53.572;10.170;2024-03-02T02:29:39;31.98;;;16.30;;
50605;SDS011;36557;53.572;10.170;2024-03-02T02:32:05;31.27;;;15.47;;
50605;SDS011;36557;53.572;10.170;2024-03-02T02:34:31;30.47;;;16.03;;
50605;SDS011;36557;53.572;10.170;2024-03-02T02:36:56;28.38;;;15.15;;
50605;SDS011;36557;53.572;10.170;2024-03-02T02:39:22;30.08;;;15.02;;
50605;SDS011;36557;53.572;10.170;2024-03-02T02:41:48;32.42;;;15.90;;
50605;SDS011;36557;53.572;10.170;2024-03-02T02:44:14;30.48;;;15.55;;
50605;SDS011;36557;53.572;10.170;2024-03-02T02:46:40;31.43;;;15.97;;
50605;SDS011;36557;53.572;10.170;2024-03-02T02:49:06;28.88;;;15.60;;
50605;SDS011;36557;53.572;10.170;2024-03-02T02:51:32;29.70;;;15.65;;
50605;SDS011;36557;53.572;10.170;2024-03-02T02:53:58;33.35;;;16.38;;
50605;SDS011;36557;53.572;10.170;2024-03-02T02:56:24;30.57;;;15.90;;
50605;SDS011;36557;53.572;10.170;2024-03-02T02:58:49;30.43;;;15.73;;
50605;SDS011;36557;53.572;10.170;2024-03-02T03:01:15;28.25;;;14.85;;
50605;SDS011;36557;53.572;10.170;2024-03-02T03:03:44;29.67;;;15.85;;
50605;SDS011;36557;53.572;10.170;2024-03-02T03:06:10;31.60;;;16.75;;
50605;SDS011;36557;53.572;10.170;2024-03-02T03:08:37;27.83;;;15.60;;
50605;SDS011;36557;53.572;10.170;2024-03-02T03:11:03;29.95;;;16.27;;
50605;SDS011;36557;53.572;10.170;2024-03-02T03:13:30;33.85;;;15.77;;
50605;SDS011;36557;53.572;10.170;2024-03-02T03:15:57;30.48;;;16.33;;
50605;SDS011;36557;53.572;10.170;2024-03-02T03:18:22;32.85;;;16.00;;
50605;SDS011;36557;53.572;10.170;2024-03-02T03:20:48;30.30;;;15.90;;
50605;SDS011;36557;53.572;10.170;2024-03-02T03:23:15;29.23;;;15.75;;
50605;SDS011;36557;53.572;10.170;2024-03-02T03:25:42;30.27;;;16.08;;
50605;SDS011;36557;53.572;10.170;2024-03-02T03:28:08;29.47;;;15.70;;
50605;SDS011;36557;53.572;10.170;2024-03-02T03:30:37;31.40;;;15.27;;
50605;SDS011;36557;53.572;10.170;2024-03-02T03:33:03;30.20;;;16.00;;
50605;SDS011;36557;53.572;10.170;2024-03-02T03:35:31;32.03;;;16.07;;
50605;SDS011;36557;53.572;10.170;2024-03-02T03:37:57;33.93;;;16.30;;
50605;SDS011;36557;53.572;10.170;2024-03-02T03:40:23;30.77;;;15.75;;
50605;SDS011;36557;53.572;10.170;2024-03-02T03:42:49;30.45;;;16.15;;
50605;SDS011;36557;53.572;10.170;2024-03-02T03:45:15;31.83;;;15.90;;
50605;SDS011;36557;53.572;10.170;2024-03-02T03:47:41;31.17;;;15.50;;
50605;SDS011;36557;53.572;10.170;2024-03-02T03:50:07;29.10;;;14.93;;
50605;SDS011;36557;53.572;10.170;2024-03-02T03:52:33;29.52;;;14.98;;
50605;SDS011;36557;53.572;10.170;2024-03-02T03:54:59;30.60;;;15.70;;
50605;SDS011;36557;53.572;10.170;2024-03-02T03:57:25;28.40;;;14.95;;
50605;SDS011;36557;53.572;10.170;2024-03-02T03:59:52;28.50;;;15.23;;
50605;SDS011;36557;53.572;10.170;2024-03-02T04:02:18;30.80;;;15.87;;
50605;SDS011;36557;53.572;10.170;2024-03-02T04:04:43;29.40;;;15.40;;
50605;SDS011;36557;53.572;10.170;2024-03-02T04:07:09;28.75;;;15.18;;
50605;SDS011;36557;53.572;10.170;2024-03-02T04:09:35;27.98;;;14.90;;
50605;SDS011;36557;53.572;10.170;2024-03-02T04:12:00;28.50;;;14.50;;
50605;SDS011;36557;53.572;10.170;2024-03-02T04:14:26;28.17;;;14.90;;
50605;SDS011;36557;53.572;10.170;2024-03-02T04:16:52;28.90;;;14.02;;
50605;SDS011;36557;53.572;10.170;2024-03-02T04:19:18;27.42;;;14.70;;
50605;SDS011;36557;53.572;10.170;2024-03-02T04:21:43;34.13;;;15.33;;
50605;SDS011;36557;53.572;10.170;2024-03-02T04:24:09;28.77;;;14.47;;
50605;SDS011;36557;53.572;10.170;2024-03-02T04:26:35;28.08;;;14.60;;
50605;SDS011;36557;53.572;10.170;2024-03-02T04:29:01;26.85;;;14.73;;
50605;SDS011;36557;53.572;10.170;2024-03-02T04:31:27;29.17;;;15.60;;
50605;SDS011;36557;53.572;10.170;2024-03-02T04:33:52;27.10;;;14.32;;
50605;SDS011;36557;53.572;10.170;2024-03-02T04:36:19;28.02;;;15.13;;
50605;SDS011;36557;53.572;10.170;2024-03-02T04:38:46;28.75;;;14.75;;
50605;SDS011;36557;53.572;10.170;2024-03-02T04:41:12;26.92;;;14.23;;
50605;SDS011;36557;53.572;10.170;2024-03-02T04:43:37;26.63;;;14.07;;
50605;SDS011;36557;53.572;10.170;2024-03-02T04:46:03;24.97;;;14.10;;
50605;SDS011;36557;53.572;10.170;2024-03-02T04:48:30;29.20;;;15.05;;
50605;SDS011;36557;53.572;10.170;2024-03-02T04:50:56;26.08;;;14.55;;
50605;SDS011;36557;53.572;10.170;2024-03-02T04:53:22;25.67;;;14.25;;
50605;SDS011;36557;53.572;10.170;2024-03-02T04:55:47;27.52;;;14.20;;
50605;SDS011;36557;53.572;10.170;2024-03-02T04:58:19;27.60;;;14.05;;
50605;SDS011;36557;53.572;10.170;2024-03-02T05:00:45;24.45;;;13.85;;
50605;SDS011;36557;53.572;10.170;2024-03-02T05:03:11;25.92;;;14.13;;
50605;SDS011;36557;53.572;10.170;2024-03-02T05:05:38;26.83;;;14.43;;
50605;SDS011;36557;53.572;10.170;2024-03-02T05:08:04;24.83;;;13.50;;
50605;SDS011;36557;53.572;10.170;2024-03-02T05:10:30;24.77;;;13.98;;
50605;SDS011;36557;53.572;10.170;2024-03-02T05:12:55;25.58;;;13.68;;
50605;SDS011;36557;53.572;10.170;2024-03-02T05:15:24;26.05;;;13.60;;
50605;SDS011;36557;53.572;10.170;2024-03-02T05:17:50;24.63;;;13.50;;
50605;SDS011;36557;53.572;10.170;2024-03-02T05:20:16;25.10;;;13.37;;
50605;SDS011;36557;53.572;10.170;2024-03-02T05:22:42;27.27;;;13.73;;
50605;SDS011;36557;53.572;10.170;2024-03-02T05:25:08;25.00;;;14.48;;
50605;SDS011;36557;53.572;10.170;2024-03-02T05:27:36;26.90;;;13.88;;
50605;SDS011;36557;53.572;10.170;2024-03-02T05:30:02;26.02;;;14.35;;
50605;SDS011;36557;53.572;10.170;2024-03-02T05:32:31;25.07;;;13.40;;
50605;SDS011;36557;53.572;10.170;2024-03-02T05:34:57;26.30;;;14.07;;
50605;SDS011;36557;53.572;10.170;2024-03-02T05:37:23;26.80;;;13.80;;
50605;SDS011;36557;53.572;10.170;2024-03-02T05:39:48;23.35;;;13.43;;
50605;SDS011;36557;53.572;10.170;2024-03-02T05:42:14;23.30;;;13.63;;
50605;SDS011;36557;53.572;10.170;2024-03-02T05:44:41;26.60;;;13.40;;
50605;SDS011;36557;53.572;10.170;2024-03-02T05:47:07;23.15;;;13.20;;
50605;SDS011;36557;53.572;10.170;2024-03-02T05:49:35;25.60;;;13.52;;
50605;SDS011;36557;53.572;10.170;2024-03-02T05:52:01;24.20;;;13.90;;
50605;SDS011;36557;53.572;10.170;2024-03-02T05:54:28;23.15;;;13.32;;
50605;SDS011;36557;53.572;10.170;2024-03-02T05:56:53;27.23;;;13.77;;
50605;SDS011;36557;53.572;10.170;2024-03-02T05:59:19;25.30;;;13.57;;
50605;SDS011;36557;53.572;10.170;2024-03-02T06:01:45;27.40;;;15.00;;
50605;SDS011;36557;53.572;10.170;2024-03-02T06:04:12;26.45;;;14.48;;
50605;SDS011;36557;53.572;10.170;2024-03-02T06:06:38;25.80;;;14.05;;
50605;SDS011;36557;53.572;10.170;2024-03-02T06:09:05;28.47;;;14.37;;
50605;SDS011;36557;53.572;10.170;2024-03-02T06:11:38;27.30;;;14.30;;
50605;SDS011;36557;53.572;10.170;2024-03-02T06:14:05;27.77;;;15.15;;
50605;SDS011;36557;53.572;10.170;2024-03-02T06:16:32;27.25;;;14.30;;
50605;SDS011;36557;53.572;10.170;2024-03-02T06:18:58;27.48;;;15.30;;
50605;SDS011;36557;53.572;10.170;2024-03-02T06:21:24;29.90;;;14.98;;
50605;SDS011;36557;53.572;10.170;2024-03-02T06:23:50;27.58;;;14.95;;
50605;SDS011;36557;53.572;10.170;2024-03-02T06:26:16;27.02;;;14.25;;
50605;SDS011;36557;53.572;10.170;2024-03-02T06:28:42;26.87;;;15.13;;
50605;SDS011;36557;53.572;10.170;2024-03-02T06:31:11;30.60;;;15.30;;
50605;SDS011;36557;53.572;10.170;2024-03-02T06:33:37;29.38;;;14.52;;
50605;SDS011;36557;53.572;10.170;2024-03-02T06:36:03;29.83;;;14.63;;
50605;SDS011;36557;53.572;10.170;2024-03-02T06:38:29;28.27;;;15.05;;
50605;SDS011;36557;53.572;10.170;2024-03-02T06:40:57;25.55;;;14.50;;
50605;SDS011;36557;53.572;10.170;2024-03-02T06:43:23;28.55;;;14.95;;
50605;SDS011;36557;53.572;10.170;2024-03-02T06:45:52;26.20;;;14.23;;
50605;SDS011;36557;53.572;10.170;2024-03-02T06:48:18;27.13;;;14.55;;
50605;SDS011;36557;53.572;10.170;2024-03-02T06:50:47;27.08;;;14.30;;
50605;SDS011;36557;53.572;10.170;2024-03-02T06:53:13;27.15;;;13.93;;
50605;SDS011;36557;53.572;10.170;2024-03-02T06:55:42;27.65;;;14.13;;
50605;SDS011;36557;53.572;10.170;2024-03-02T06:58:09;30.30;;;13.98;;
50605;SDS011;36557;53.572;10.170;2024-03-02T07:00:36;25.17;;;14.27;;
50605;SDS011;36557;53.572;10.170;2024-03-02T07:03:02;27.83;;;14.63;;
50605;SDS011;36557;53.572;10.170;2024-03-02T07:05:27;27.27;;;14.23;;
50605;SDS011;36557;53.572;10.170;2024-03-02T07:07:53;26.37;;;14.60;;
50605;SDS011;36557;53.572;10.170;2024-03-02T07:10:19;27.50;;;14.60;;
50605;SDS011;36557;53.572;10.170;2024-03-02T07:12:44;26.80;;;14.27;;
50605;SDS011;36557;53.572;10.170;2024-03-02T07:15:10;28.43;;;14.40;;
50605;SDS011;36557;53.572;10.170;2024-03-02T07:17:46;25.25;;;13.55;;
50605;SDS011;36557;53.572;10.170;2024-03-02T07:20:12;25.25;;;13.50;;
50605;SDS011;36557;53.572;10.170;2024-03-02T07:22:38;25.58;;;13.63;;
50605;SDS011;36557;53.572;10.170;2024-03-02T07:25:04;26.52;;;14.23;;
50605;SDS011;36557;53.572;10.170;2024-03-02T07:27:32;27.00;;;14.13;;
50605;SDS011;36557;53.572;10.170;2024-03-02T07:29:58;23.30;;;13.47;;
50605;SDS011;36557;53.572;10.170;2024-03-02T07:32:24;24.57;;;13.53;;
50605;SDS011;36557;53.572;10.170;2024-03-02T07:34:50;25.40;;;13.45;;
50605;SDS011;36557;53.572;10.170;2024-03-02T07:37:16;25.48;;;13.77;;
50605;SDS011;36557;53.572;10.170;2024-03-02T07:39:43;24.60;;;13.13;;
50605;SDS011;36557;53.572;10.170;2024-03-02T07:42:10;26.27;;;13.55;;
50605;SDS011;36557;53.572;10.170;2024-03-02T07:44:35;23.70;;;12.77;;
50605;SDS011;36557;53.572;10.170;2024-03-02T07:47:01;26.07;;;13.50;;
50605;SDS011;36557;53.572;10.170;2024-03-02T07:49:27;22.98;;;12.70;;
50605;SDS011;36557;53.572;10.170;2024-03-02T07:51:53;26.23;;;13.48;;
50605;SDS011;36557;53.572;10.170;2024-03-02T07:54:18;26.23;;;13.23;;
50605;SDS011;36557;53.572;10.170;2024-03-02T07:56:44;24.70;;;12.97;;
50605;SDS011;36557;53.572;10.170;2024-03-02T07:59:10;24.80;;;13.05;;
50605;SDS011;36557;53.572;10.170;2024-03-02T08:01:36;24.77;;;13.20;;
50605;SDS011;36557;53.572;10.170;2024-03-02T08:04:02;23.92;;;13.00;;
50605;SDS011;36557;53.572;10.170;2024-03-02T08:06:30;22.33;;;11.90;;
50605;SDS011;36557;53.572;10.170;2024-03-02T08:08:57;25.77;;;12.70;;
50605;SDS011;36557;53.572;10.170;2024-03-02T08:11:23;22.02;;;11.93;;
50605;SDS011;36557;53.572;10.170;2024-03-02T08:13:49;23.63;;;12.32;;
50605;SDS011;36557;53.572;10.170;2024-03-02T08:16:15;21.23;;;11.45;;
50605;SDS011;36557;53.572;10.170;2024-03-02T08:18:44;22.02;;;12.05;;
50605;SDS011;36557;53.572;10.170;2024-03-02T08:21:11;22.10;;;12.52;;
50605;SDS011;36557;53.572;10.170;2024-03-02T08:23:37;21.48;;;11.73;;
50605;SDS011;36557;53.572;10.170;2024-03-02T08:26:03;20.27;;;11.55;;
50605;SDS011;36557;53.572;10.170;2024-03-02T08:28:29;20.73;;;11.73;;
50605;SDS011;36557;53.572;10.170;2024-03-02T08:30:55;20.92;;;12.07;;
50605;SDS011;36557;53.572;10.170;2024-03-02T08:33:21;22.50;;;11.80;;
50605;SDS011;36557;53.572;10.170;2024-03-02T08:35:47;25.20;;;14.40;;
50605;SDS011;36557;53.572;10.170;2024-03-02T08:38:13;24.00;;;12.35;;
50605;SDS011;36557;53.572;10.170;2024-03-02T08:40:39;21.75;;;12.05;;
50605;SDS011;36557;53.572;10.170;2024-03-02T08:43:04;21.47;;;12.00;;
50605;SDS011;36557;53.572;10.170;2024-03-02T08:45:30;22.23;;;11.85;;
50605;SDS011;36557;53.572;10.170;2024-03-02T08:47:56;20.92;;;11.63;;
50605;SDS011;36557;53.572;10.170;2024-03-02T08:50:21;21.70;;;11.53;;
50605;SDS011;36557;53.572;10.170;2024-03-02T08:52:47;22.37;;;12.53;;
50605;SDS011;36557;53.572;10.170;2024-03-02T08:55:13;22.25;;;12.10;;
50605;SDS011;36557;53.572;10.170;2024-03-02T08:57:39;19.87;;;11.87;;
50605;SDS011;36557;53.572;10.170;2024-03-02T09:00:07;22.70;;;12.47;;
50605;SDS011;36557;53.572;10.170;2024-03-02T09:02:33;22.48;;;12.18;;
50605;SDS011;36557;53.572;10.170;2024-03-02T09:04:59;21.45;;;11.85;;
50605;SDS011;36557;53.572;10.170;2024-03-02T09:07:25;21.75;;;11.73;;
50605;SDS011;36557;53.572;10.170;2024-03-02T09:09:51;19.98;;;11.95;;
50605;SDS011;36557;53.572;10.170;2024-03-02T09:12:17;22.10;;;12.10;;
50605;SDS011;36557;53.572;10.170;2024-03-02T09:14:43;21.27;;;11.35;;
50605;SDS011;36557;53.572;10.170;2024-03-02T09:17:09;22.15;;;11.82;;
50605;SDS011;36557;53.572;10.170;2024-03-02T09:19:36;20.00;;;11.45;;
50605;SDS011;36557;53.572;10.170;2024-03-02T09:22:02;20.40;;;11.30;;
50605;SDS011;36557;53.572;10.170;2024-03-02T09:24:30;21.83;;;12.18;;
50605;SDS011;36557;53.572;10.170;2024-03-02T09:26:56;21.05;;;12.02;;
50605;SDS011;36557;53.572;10.170;2024-03-02T09:29:22;23.60;;;12.13;;
50605;SDS011;36557;53.572;10.170;2024-03-02T09:31:47;21.73;;;11.82;;
50605;SDS011;36557;53.572;10.170;2024-03-02T09:34:14;19.23;;;11.07;;
50605;SDS011;36557;53.572;10.170;2024-03-02T09:36:40;20.85;;;11.18;;
50605;SDS011;36557;53.572;10.170;2024-03-02T09:39:09;20.40;;;11.50;;
50605;SDS011;36557;53.572;10.170;2024-03-02T09:41:36;20.27;;;11.65;;
50605;SDS011;36557;53.572;10.170;2024-03-02T09:44:03;22.13;;;11.85;;
50605;SDS011;36557;53.572;10.170;2024-03-02T09:46:29;20.00;;;11.95;;
50605;SDS011;36557;53.572;10.170;2024-03-02T09:48:55;18.92;;;11.00;;
50605;SDS011;36557;53.572;10.170;2024-03-02T09:51:21;18.23;;;10.90;;
50605;SDS011;36557;53.572;10.170;2024-03-02T09:53:47;21.17;;;12.15;;
50605;SDS011;36557;53.572;10.170;2024-03-02T09:56:13;19.75;;;11.20;;
50605;SDS011;36557;53.572;10.170;2024-03-02T09:58:40;20.48;;;10.82;;
50605;SDS011;36557;53.572;10.170;2024-03-02T10:01:07;20.05;;;11.05;;
50605;SDS011;36557;53.572;10.170;2024-03-02T10:03:33;19.17;;;11.15;;
50605;SDS011;36557;53.572;10.170;2024-03-02T10:08:50;20.15;;;11.32;;
50605;SDS011;36557;53.572;10.170;2024-03-02T10:11:50;16.75;;;9.95;;
50605;SDS011;36557;53.572;10.170;2024-03-02T10:14:10;19.23;;;10.82;;
50605;SDS011;36557;53.572;10.170;2024-03-02T10:16:37;17.83;;;9.48;;
50605;SDS011;36557;53.572;10.170;2024-03-02T10:19:20;17.67;;;9.93;;
50605;SDS011;36557;53.572;10.170;2024-03-02T10:21:51;17.13;;;9.57;;
50605;SDS011;36557;53.572;10.170;2024-03-02T10:24:18;16.90;;;9.85;;
50605;SDS011;36557;53.572;10.170;2024-03-02T10:26:44;16.83;;;9.38;;
50605;SDS011;36557;53.572;10.170;2024-03-02T10:29:10;16.13;;;8.80;;
50605;SDS011;36557;53.572;10.170;2024-03-02T10:31:40;15.88;;;9.13;;
50605;SDS011;36557;53.572;10.170;2024-03-02T10:34:09;14.97;;;8.70;;
50605;SDS011;36557;53.572;10.170;2024-03-02T10:36:36;15.00;;;8.52;;
50605;SDS011;36557;53.572;10.170;2024-03-02T10:39:05;14.52;;;8.50;;
50605;SDS011;36557;53.572;10.170;2024-03-02T10:41:32;14.48;;;8.10;;
50605;SDS011;36557;53.572;10.170;2024-03-02T10:43:59;13.95;;;7.95;;
50605;SDS011;36557;53.572;10.170;2024-03-02T10:46:32;13.68;;;8.30;;
50605;SDS011;36557;53.572;10.170;2024-03-02T10:49:01;13.40;;;8.30;;
50605;SDS011;36557;53.572;10.170;2024-03-02T10:51:29;15.38;;;8.30;;
50605;SDS011;36557;53.572;10.170;2024-03-02T10:54:01;21.90;;;13.15;;
50605;SDS011;36557;53.572;10.170;2024-03-02T10:56:32;33.30;;;19.80;;
50605;SDS011;36557;53.572;10.170;2024-03-02T11:01:47;12.18;;;7.82;;
50605;SDS011;36557;53.572;10.170;2024-03-02T11:04:18;15.38;;;8.40;;
50605;SDS011;36557;53.572;10.170;2024-03-02T11:06:48;13.35;;;8.23;;
50605;SDS011;36557;53.572;10.170;2024-03-02T11:09:14;14.10;;;8.73;;
50605;SDS011;36557;53.572;10.170;2024-03-02T11:11:43;13.57;;;8.07;;
50605;SDS011;36557;53.572;10.170;2024-03-02T11:14:15;13.80;;;7.80;;
50605;SDS011;36557;53.572;10.170;2024-03-02T11:16:44;13.50;;;7.65;;
50605;SDS011;36557;53.572;10.170;2024-03-02T11:19:15;13.75;;;8.02;;
50605;SDS011;36557;53.572;10.170;2024-03-02T11:21:41;12.70;;;7.35;;
50605;SDS011;36557;53.572;10.170;2024-03-02T11:26:49;12.07;;;7.53;;
50605;SDS011;36557;53.572;10.170;2024-03-02T11:32:05;13.20;;;7.20;;
50605;SDS011;36557;53.572;10.170;2024-03-02T11:34:39;13.13;;;7.40;;
50605;SDS011;36557;53.572;10.170;2024-03-02T11:37:10;13.57;;;7.60;;
50605;SDS011;36557;53.572;10.170;2024-03-02T11:39:37;11.55;;;7.45;;
50605;SDS011;36557;53.572;10.170;2024-03-02T11:42:05;11.65;;;7.22;;
50605;SDS011;36557;53.572;10.170;2024-03-02T11:44:37;11.18;;;7.00;;
50605;SDS011;36557;53.572;10.170;2024-03-02T11:47:07;12.35;;;7.75;;
50605;SDS011;36557;53.572;10.170;2024-03-02T11:49:37;11.45;;;7.22;;
50605;SDS011;36557;53.572;10.170;2024-03-02T11:52:04;11.70;;;7.07;;
50605;SDS011;36557;53.572;10.170;2024-03-02T11:54:32;12.57;;;7.20;;
50605;SDS011;36557;53.572;10.170;2024-03-02T11:57:04;11.75;;;6.90;;
50605;SDS011;36557;53.572;10.170;2024-03-02T11:59:30;11.95;;;7.38;;
50605;SDS011;36557;53.572;10.170;2024-03-02T12:01:56;10.43;;;7.00;;
50605;SDS011;36557;53.572;10.170;2024-03-02T12:04:23;11.40;;;6.45;;
50605;SDS011;36557;53.572;10.170;2024-03-02T12:06:59;10.90;;;6.83;;
50605;SDS011;36557;53.572;10.170;2024-03-02T12:09:26;12.77;;;7.57;;
50605;SDS011;36557;53.572;10.170;2024-03-02T12:12:01;12.53;;;7.40;;
50605;SDS011;36557;53.572;10.170;2024-03-02T12:14:29;12.80;;;7.60;;
50605;SDS011;36557;53.572;10.170;2024-03-02T12:16:55;13.40;;;8.00;;
50605;SDS011;36557;53.572;10.170;2024-03-02T12:19:21;11.38;;;6.90;;
50605;SDS011;36557;53.572;10.170;2024-03-02T12:21:47;11.38;;;7.13;;
50605;SDS011;36557;53.572;10.170;2024-03-02T12:24:12;12.82;;;7.35;;
50605;SDS011;36557;53.572;10.170;2024-03-02T12:26:38;12.87;;;7.47;;
50605;SDS011;36557;53.572;10.170;2024-03-02T12:29:05;12.02;;;7.25;;
50605;SDS011;36557;53.572;10.170;2024-03-02T12:31:30;11.80;;;7.43;;
50605;SDS011;36557;53.572;10.170;2024-03-02T12:33:57;13.00;;;7.35;;
50605;SDS011;36557;53.572;10.170;2024-03-02T12:36:23;11.07;;;7.28;;
50605;SDS011;36557;53.572;10.170;2024-03-02T12:38:52;12.43;;;7.30;;
50605;SDS011;36557;53.572;10.170;2024-03-02T12:41:18;12.55;;;6.78;;
50605;SDS011;36557;53.572;10.170;2024-03-02T12:43:44;10.57;;;6.95;;
50605;SDS011;36557;53.572;10.170;2024-03-02T12:46:10;11.60;;;6.70;;
50605;SDS011;36557;53.572;10.170;2024-03-02T12:48:36;11.32;;;6.65;;
50605;SDS011;36557;53.572;10.170;2024-03-02T12:51:04;10.88;;;6.35;;
50605;SDS011;36557;53.572;10.170;2024-03-02T12:53:30;13.65;;;7.70;;
50605;SDS011;36557;53.572;10.170;2024-03-02T12:55:56;12.40;;;7.03;;
50605;SDS011;36557;53.572;10.170;2024-03-02T12:58:22;12.20;;;6.80;;
50605;SDS011;36557;53.572;10.170;2024-03-02T13:00:48;9.85;;;6.32;;
50605;SDS011;36557;53.572;10.170;2024-03-02T13:03:17;11.20;;;6.47;;
50605;SDS011;36557;53.572;10.170;2024-03-02T13:05:49;12.05;;;6.53;;
50605;SDS011;36557;53.572;10.170;2024-03-02T13:08:15;11.40;;;6.43;;
50605;SDS011;36557;53.572;10.170;2024-03-02T13:10:41;10.55;;;6.18;;
50605;SDS011;36557;53.572;10.170;2024-03-02T13:13:07;10.77;;;6.40;;
50605;SDS011;36557;53.572;10.170;2024-03-02T13:15:33;10.82;;;6.63;;
50605;SDS011;36557;53.572;10.170;2024-03-02T13:17:59;9.97;;;6.17;;
50605;SDS011;36557;53.572;10.170;2024-03-02T13:20:29;9.77;;;6.25;;
50605;SDS011;36557;53.572;10.170;2024-03-02T13:22:57;11.02;;;6.45;;
50605;SDS011;36557;53.572;10.170;2024-03-02T13:25:22;11.45;;;6.78;;
50605;SDS011;36557;53.572;10.170;2024-03-02T13:27:48;13.13;;;7.53;;
50605;SDS011;36557;53.572;10.170;2024-03-02T13:30:14;10.27;;;6.47;;
50605;SDS011;36557;53.572;10.170;2024-03-02T13:32:39;11.87;;;6.33;;
50605;SDS011;36557;53.572;10.170;2024-03-02T13:35:05;9.43;;;6.45;;
50605;SDS011;36557;53.572;10.170;2024-03-02T13:37:31;11.38;;;6.13;;
50605;SDS011;36557;53.572;10.170;2024-03-02T13:39:57;10.23;;;6.07;;
50605;SDS011;36557;53.572;10.170;2024-03-02T13:42:23;10.65;;;6.57;;
50605;SDS011;36557;53.572;10.170;2024-03-02T13:44:49;11.02;;;6.10;;
50605;SDS011;36557;53.572;10.170;2024-03-02T13:47:16;11.15;;;6.25;;
50605;SDS011;36557;53.572;10.170;2024-03-02T13:49:42;10.95;;;6.50;;
50605;SDS011;36557;53.572;10.170;2024-03-02T13:52:11;11.43;;;6.38;;
50605;SDS011;36557;53.572;10.170;2024-03-02T13:54:45;10.85;;;6.28;;
50605;SDS011;36557;53.572;10.170;2024-03-02T13:57:11;9.88;;;6.00;;
50605;SDS011;36557;53.572;10.170;2024-03-02T13:59:38;10.23;;;6.07;;
50605;SDS011;36557;53.572;10.170;2024-03-02T14:02:05;11.18;;;6.70;;
50605;SDS011;36557;53.572;10.170;2024-03-02T14:04:32;11.18;;;6.35;;
50605;SDS011;36557;53.572;10.170;2024-03-02T14:06:58;11.35;;;6.40;;
50605;SDS011;36557;53.572;10.170;2024-03-02T14:09:25;11.52;;;7.13;;
50605;SDS011;36557;53.572;10.170;2024-03-02T14:11:51;10.88;;;7.05;;
50605;SDS011;36557;53.572;10.170;2024-03-02T14:14:17;10.57;;;6.57;;
50605;SDS011;36557;53.572;10.170;2024-03-02T14:16:43;10.80;;;6.13;;
50605;SDS011;36557;53.572;10.170;2024-03-02T14:19:10;10.80;;;6.47;;
50605;SDS011;36557;53.572;10.170;2024-03-02T14:21:37;10.63;;;6.82;;